createdAt,value
2018-07-02T00:00:23.576Z,0
2018-07-02T00:01:33.605Z,0
2018-07-02T00:02:43.432Z,0
2018-07-02T00:03:52.881Z,0
2018-07-02T00:05:02.543Z,0
2018-07-02T00:06:12.568Z,0
2018-07-02T00:07:21.493Z,0
2018-07-02T00:08:31.012Z,0
2018-07-02T00:09:40.516Z,0
2018-07-02T00:10:49.765Z,0
2018-07-02T00:11:59.281Z,0
2018-07-02T00:13:09.072Z,0
2018-07-02T00:14:19.061Z,0
2018-07-02T00:15:27.999Z,0
2018-07-02T00:16:37.969Z,0
2018-07-02T00:17:47.530Z,0
2018-07-02T00:18:56.757Z,0
2018-07-02T00:20:05.407Z,0
2018-07-02T00:21:14.859Z,0
2018-07-02T00:22:24.357Z,0
2018-07-02T00:23:33.290Z,0
2018-07-02T00:24:43.134Z,0
2018-07-02T00:25:53.030Z,0
2018-07-02T00:27:02.400Z,0
2018-07-02T00:28:12.160Z,0
2018-07-02T00:29:21.684Z,0
2018-07-02T00:30:30.623Z,0
2018-07-02T00:31:40.253Z,0
2018-07-02T00:32:50.820Z,0
2018-07-02T00:34:00.786Z,0
2018-07-02T00:35:10.735Z,0
2018-07-02T00:36:19.672Z,0
2018-07-02T00:37:28.893Z,0
2018-07-02T00:38:38.652Z,0
2018-07-02T00:39:48.566Z,0
2018-07-02T00:40:58.337Z,0
2018-07-02T00:42:07.552Z,0
2018-07-02T00:43:18.673Z,0
2018-07-02T00:44:28.206Z,0
2018-07-02T00:45:37.680Z,0
2018-07-02T00:46:47.537Z,0
2018-07-02T00:47:57.010Z,0
2018-07-02T00:49:06.226Z,0
2018-07-02T00:50:16.536Z,0
2018-07-02T00:51:26.345Z,0
2018-07-02T00:52:35.550Z,0
2018-07-02T00:53:44.195Z,0
2018-07-02T00:54:54.509Z,0
2018-07-02T00:56:04.910Z,0
2018-07-02T00:57:13.860Z,0
2018-07-02T00:58:22.768Z,0
2018-07-02T00:59:32.007Z,0
2018-07-02T01:00:41.531Z,0
2018-07-02T01:01:52.248Z,0
2018-07-02T01:03:02.328Z,0
2018-07-02T01:04:12.329Z,0
2018-07-02T01:05:21.815Z,0
2018-07-02T01:06:31.319Z,0
2018-07-02T01:07:40.817Z,0
2018-07-02T01:08:51.030Z,0
2018-07-02T01:10:01.379Z,0
2018-07-02T01:11:10.012Z,0
2018-07-02T01:12:19.229Z,0
2018-07-02T01:13:29.031Z,0
2018-07-02T01:14:38.889Z,0
2018-07-02T01:15:49.704Z,0
2018-07-02T01:16:58.926Z,0
2018-07-02T01:18:08.173Z,0
2018-07-02T01:19:18.339Z,0
2018-07-02T01:20:27.885Z,0
2018-07-02T01:21:37.601Z,0
2018-07-02T01:22:46.791Z,0
2018-07-02T01:23:56.588Z,0
2018-07-02T01:25:05.510Z,0
2018-07-02T01:26:15.014Z,0
2018-07-02T01:27:25.290Z,0
2018-07-02T01:28:34.799Z,0
2018-07-02T01:29:43.994Z,0
2018-07-02T01:30:54.771Z,0
2018-07-02T01:32:04.687Z,0
2018-07-02T01:33:14.782Z,0
2018-07-02T01:34:25.215Z,0
2018-07-02T01:35:35.162Z,0
2018-07-02T01:36:44.388Z,0
2018-07-02T01:37:53.889Z,0
2018-07-02T01:39:03.348Z,0
2018-07-02T01:40:12.580Z,0
2018-07-02T01:41:22.775Z,0
2018-07-02T01:42:31.683Z,0
2018-07-02T01:43:40.639Z,0
2018-07-02T01:44:50.413Z,0
2018-07-02T01:45:59.619Z,0
2018-07-02T01:47:09.027Z,0
2018-07-02T01:48:18.254Z,0
2018-07-02T01:49:29.024Z,0
2018-07-02T01:50:38.549Z,0
2018-07-02T01:51:48.055Z,0
2018-07-02T01:52:58.302Z,0
2018-07-02T01:54:07.525Z,0
2018-07-02T01:55:18.749Z,0
2018-07-02T01:56:27.954Z,0
2018-07-02T01:57:37.980Z,0
2018-07-02T01:58:47.431Z,0
2018-07-02T01:59:57.211Z,0
2018-07-02T02:01:08.441Z,0
2018-07-02T02:02:18.906Z,0
2018-07-02T02:03:28.771Z,0
2018-07-02T02:04:38.504Z,0
2018-07-02T02:05:48.515Z,0
2018-07-02T02:06:58.284Z,0
2018-07-02T02:08:07.795Z,0
2018-07-02T02:09:16.994Z,0
2018-07-02T02:10:26.789Z,0
2018-07-02T02:11:38.308Z,0
2018-07-02T02:12:47.757Z,0
2018-07-02T02:13:58.521Z,0
2018-07-02T02:15:08.293Z,0
2018-07-02T02:16:17.514Z,0
2018-07-02T02:17:27.269Z,0
2018-07-02T02:18:36.741Z,0
2018-07-02T02:19:47.005Z,0
2018-07-02T02:20:57.358Z,0
2018-07-02T02:22:09.060Z,0
2018-07-02T02:23:20.039Z,0
2018-07-02T02:24:30.125Z,0
2018-07-02T02:25:39.061Z,0
2018-07-02T02:26:48.235Z,0
2018-07-02T02:27:57.711Z,0
2018-07-02T02:29:06.904Z,0
2018-07-02T02:30:16.657Z,0
2018-07-02T02:31:27.368Z,0
2018-07-02T02:32:37.349Z,0
2018-07-02T02:33:47.208Z,0
2018-07-02T02:34:56.391Z,0
2018-07-02T02:36:05.032Z,0
2018-07-02T02:37:14.758Z,0
2018-07-02T02:38:24.788Z,0
2018-07-02T02:39:35.073Z,0
2018-07-02T02:40:45.697Z,0
2018-07-02T02:41:55.917Z,0
2018-07-02T02:43:05.496Z,0
2018-07-02T02:44:15.943Z,0
2018-07-02T02:45:25.674Z,0
2018-07-02T02:46:35.690Z,0
2018-07-02T02:47:44.889Z,0
2018-07-02T02:48:54.892Z,0
2018-07-02T02:50:05.877Z,0
2018-07-02T02:51:15.643Z,0
2018-07-02T02:52:24.548Z,0
2018-07-02T02:53:34.539Z,0
2018-07-02T02:54:44.324Z,0
2018-07-02T02:55:53.555Z,0
2018-07-02T02:57:03.046Z,0
2018-07-02T02:58:12.821Z,0
2018-07-02T02:59:22.749Z,0
2018-07-02T03:00:34.372Z,0
2018-07-02T03:01:43.849Z,0
2018-07-02T03:02:53.050Z,0
2018-07-02T03:04:03.130Z,0
2018-07-02T03:05:12.416Z,0
2018-07-02T03:06:22.141Z,0
2018-07-02T03:07:31.049Z,0
2018-07-02T03:08:40.528Z,0
2018-07-02T03:09:51.052Z,0
2018-07-02T03:11:00.699Z,0
2018-07-02T03:12:11.075Z,0
2018-07-02T03:13:22.280Z,0
2018-07-02T03:14:32.622Z,0
2018-07-02T03:15:42.082Z,0
2018-07-02T03:16:52.136Z,0
2018-07-02T03:18:01.881Z,0
2018-07-02T03:19:11.654Z,0
2018-07-02T03:20:21.571Z,0
2018-07-02T03:21:31.713Z,0
2018-07-02T03:22:42.434Z,0
2018-07-02T03:23:51.905Z,0
2018-07-02T03:25:02.134Z,0
2018-07-02T03:26:11.886Z,0
2018-07-02T03:27:21.602Z,0
2018-07-02T03:28:31.080Z,0
2018-07-02T03:29:40.277Z,0
2018-07-02T03:30:50.297Z,0
2018-07-02T03:32:00.229Z,0
2018-07-02T03:33:10.568Z,0
2018-07-02T03:34:20.010Z,0
2018-07-02T03:35:29.209Z,0
2018-07-02T03:36:38.660Z,0
2018-07-02T03:37:48.130Z,0
2018-07-02T03:38:57.034Z,0
2018-07-02T03:40:06.729Z,0
2018-07-02T03:41:16.773Z,0
2018-07-02T03:42:26.536Z,0
2018-07-02T03:43:36.000Z,0
2018-07-02T03:44:45.467Z,0
2018-07-02T03:45:55.281Z,0
2018-07-02T03:47:04.482Z,0
2018-07-02T03:48:14.854Z,0
2018-07-02T03:49:25.648Z,0
2018-07-02T03:50:35.484Z,0
2018-07-02T03:51:44.397Z,0
2018-07-02T03:52:53.918Z,0
2018-07-02T03:54:03.679Z,0
2018-07-02T03:55:12.881Z,0
2018-07-02T03:56:22.106Z,0
2018-07-02T03:57:32.836Z,0
2018-07-02T03:58:42.620Z,0
2018-07-02T03:59:53.087Z,0
2018-07-02T04:01:02.848Z,0
2018-07-02T04:02:12.332Z,0
2018-07-02T04:03:21.801Z,0
2018-07-02T04:04:30.718Z,0
2018-07-02T04:05:40.197Z,0
2018-07-02T04:06:50.762Z,0
2018-07-02T04:08:00.639Z,0
2018-07-02T04:09:09.820Z,0
2018-07-02T04:10:18.768Z,0
2018-07-02T04:11:27.408Z,0
2018-07-02T04:12:37.163Z,4
2018-07-02T04:13:46.673Z,4
2018-07-02T04:14:57.297Z,4
2018-07-02T04:16:08.219Z,4
2018-07-02T04:17:18.051Z,4
2018-07-02T04:18:27.867Z,4
2018-07-02T04:19:37.395Z,0
2018-07-02T04:20:47.502Z,0
2018-07-02T04:21:57.274Z,0
2018-07-02T04:23:06.462Z,0
2018-07-02T04:24:15.962Z,0
2018-07-02T04:25:25.556Z,0
2018-07-02T04:26:34.760Z,0
2018-07-02T04:27:44.227Z,0
2018-07-02T04:28:53.412Z,0
2018-07-02T04:30:03.354Z,0
2018-07-02T04:31:13.580Z,4
2018-07-02T04:32:22.499Z,4
2018-07-02T04:33:32.002Z,4
2018-07-02T04:34:41.185Z,4
2018-07-02T04:35:50.949Z,4
2018-07-02T04:37:00.442Z,4
2018-07-02T04:38:09.959Z,4
2018-07-02T04:39:20.822Z,4
2018-07-02T04:40:32.379Z,4
2018-07-02T04:41:41.611Z,4
2018-07-02T04:42:52.960Z,4
2018-07-02T04:44:04.642Z,4
2018-07-02T04:45:16.503Z,4
2018-07-02T04:46:26.692Z,0
2018-07-02T04:47:35.611Z,0
2018-07-02T04:48:48.135Z,4
2018-07-02T04:49:56.769Z,4
2018-07-02T04:51:06.796Z,4
2018-07-02T04:52:17.763Z,4
2018-07-02T04:53:28.216Z,4
2018-07-02T04:54:37.681Z,4
2018-07-02T04:55:47.935Z,4
2018-07-02T04:56:58.941Z,4
2018-07-02T04:58:09.819Z,4
2018-07-02T04:59:18.950Z,4
2018-07-02T05:00:30.347Z,4
2018-07-02T05:01:40.038Z,4
2018-07-02T05:02:49.462Z,8
2018-07-02T05:03:58.868Z,8
2018-07-02T05:05:07.764Z,4
2018-07-02T05:06:16.682Z,4
2018-07-02T05:07:26.119Z,4
2018-07-02T05:08:34.799Z,4
2018-07-02T05:09:43.916Z,4
2018-07-02T05:10:53.062Z,4
2018-07-02T05:12:02.733Z,4
2018-07-02T05:13:12.453Z,8
2018-07-02T05:14:22.120Z,8
2018-07-02T05:15:31.517Z,4
2018-07-02T05:16:41.188Z,4
2018-07-02T05:17:50.344Z,8
2018-07-02T05:19:00.344Z,4
2018-07-02T05:20:10.036Z,8
2018-07-02T05:21:19.447Z,8
2018-07-02T05:22:29.111Z,8
2018-07-02T05:23:38.269Z,8
2018-07-02T05:24:48.186Z,8
2018-07-02T05:25:57.085Z,12
2018-07-02T05:27:06.751Z,8
2018-07-02T05:28:16.148Z,8
2018-07-02T05:29:25.561Z,12
2018-07-02T05:30:35.486Z,12
2018-07-02T05:31:44.913Z,8
2018-07-02T05:32:54.325Z,12
2018-07-02T05:34:03.236Z,12
2018-07-02T05:35:12.644Z,12
2018-07-02T05:36:22.056Z,12
2018-07-02T05:37:31.235Z,12
2018-07-02T05:38:40.642Z,16
2018-07-02T05:39:49.537Z,12
2018-07-02T05:40:58.685Z,12
2018-07-02T05:42:08.613Z,16
2018-07-02T05:43:17.510Z,16
2018-07-02T05:44:27.172Z,16
2018-07-02T05:45:36.581Z,16
2018-07-02T05:46:45.726Z,16
2018-07-02T05:47:55.424Z,16
2018-07-02T05:49:04.573Z,20
2018-07-02T05:50:13.713Z,20
2018-07-02T05:51:22.862Z,16
2018-07-02T05:52:32.778Z,20
2018-07-02T05:53:42.445Z,24
2018-07-02T05:54:51.634Z,24
2018-07-02T05:56:00.874Z,8
2018-07-02T05:57:10.533Z,12
2018-07-02T05:58:19.484Z,12
2018-07-02T05:59:28.907Z,12
2018-07-02T06:00:39.084Z,12
2018-07-02T06:01:49.067Z,16
2018-07-02T06:02:58.904Z,12
2018-07-02T06:04:08.512Z,12
2018-07-02T06:05:17.663Z,16
2018-07-02T06:06:27.338Z,16
2018-07-02T06:07:36.494Z,12
2018-07-02T06:08:45.691Z,16
2018-07-02T06:09:55.352Z,16
2018-07-02T06:11:04.753Z,16
2018-07-02T06:12:14.691Z,16
2018-07-02T06:13:24.667Z,16
2018-07-02T06:14:34.096Z,20
2018-07-02T06:15:43.766Z,16
2018-07-02T06:16:53.431Z,20
2018-07-02T06:18:02.867Z,20
2018-07-02T06:19:12.288Z,16
2018-07-02T06:20:21.457Z,20
2018-07-02T06:21:31.391Z,20
2018-07-02T06:22:40.779Z,20
2018-07-02T06:23:50.181Z,20
2018-07-02T06:24:59.718Z,20
2018-07-02T06:26:09.155Z,20
2018-07-02T06:27:18.315Z,20
2018-07-02T06:28:27.481Z,20
2018-07-02T06:29:36.890Z,24
2018-07-02T06:30:46.561Z,24
2018-07-02T06:31:55.971Z,24
2018-07-02T06:33:05.129Z,20
2018-07-02T06:34:14.543Z,24
2018-07-02T06:35:23.948Z,24
2018-07-02T06:36:33.108Z,24
2018-07-02T06:37:42.327Z,24
2018-07-02T06:38:51.536Z,28
2018-07-02T06:40:01.198Z,28
2018-07-02T06:41:10.357Z,28
2018-07-02T06:42:20.284Z,28
2018-07-02T06:43:29.958Z,28
2018-07-02T06:44:39.124Z,28
2018-07-02T06:45:49.048Z,28
2018-07-02T06:46:58.194Z,28
2018-07-02T06:48:07.605Z,28
2018-07-02T06:49:17.306Z,0
2018-07-02T06:50:26.984Z,4
2018-07-02T06:51:36.402Z,4
2018-07-02T06:52:45.561Z,12
2018-07-02T06:53:54.724Z,16
2018-07-02T06:55:03.868Z,16
2018-07-02T06:56:13.524Z,16
2018-07-02T06:57:22.676Z,16
2018-07-02T06:58:32.151Z,4
2018-07-02T06:59:41.572Z,8
2018-07-02T07:00:51.240Z,8
2018-07-02T07:02:00.916Z,4
2018-07-02T07:03:10.065Z,4
2018-07-02T07:04:18.953Z,8
2018-07-02T07:05:28.353Z,8
2018-07-02T07:06:38.012Z,8
2018-07-02T07:07:47.932Z,4
2018-07-02T07:08:57.596Z,4
2018-07-02T07:10:07.025Z,4
2018-07-02T07:11:16.696Z,4
2018-07-02T07:12:25.845Z,8
2018-07-02T07:13:35.304Z,8
2018-07-02T07:14:44.725Z,4
2018-07-02T07:15:54.136Z,4
2018-07-02T07:17:03.792Z,4
2018-07-02T07:18:13.442Z,4
2018-07-02T07:19:22.842Z,4
2018-07-02T07:20:32.525Z,4
2018-07-02T07:21:42.200Z,4
2018-07-02T07:22:51.622Z,4
2018-07-02T07:24:01.302Z,4
2018-07-02T07:25:10.961Z,4
2018-07-02T07:26:20.905Z,4
2018-07-02T07:27:30.624Z,4
2018-07-02T07:28:40.110Z,0
2018-07-02T07:29:49.519Z,0
2018-07-02T07:30:58.927Z,0
2018-07-02T07:32:08.373Z,0
2018-07-02T07:33:17.763Z,0
2018-07-02T07:34:27.449Z,0
2018-07-02T07:35:36.864Z,0
2018-07-02T07:36:45.750Z,0
2018-07-02T07:37:54.917Z,0
2018-07-02T07:39:04.390Z,0
2018-07-02T07:40:14.063Z,0
2018-07-02T07:41:23.729Z,0
2018-07-02T07:42:33.143Z,0
2018-07-02T07:43:42.806Z,0
2018-07-02T07:44:52.387Z,0
2018-07-02T07:46:02.093Z,0
2018-07-02T07:47:11.253Z,0
2018-07-02T07:48:20.929Z,0
2018-07-02T07:49:30.334Z,0
2018-07-02T07:50:40.255Z,0
2018-07-02T07:51:49.922Z,0
2018-07-02T07:52:59.586Z,0
2018-07-02T07:54:09.032Z,0
2018-07-02T07:55:17.946Z,0
2018-07-02T07:56:27.868Z,0
2018-07-02T07:57:37.273Z,0
2018-07-02T07:58:46.927Z,0
2018-07-02T07:59:56.334Z,0
2018-07-02T08:01:06.434Z,0
2018-07-02T08:02:15.869Z,0
2018-07-02T08:03:25.295Z,0
2018-07-02T08:04:34.958Z,0
2018-07-02T08:05:44.374Z,0
2018-07-02T08:06:53.554Z,0
2018-07-02T08:08:02.963Z,0
2018-07-02T08:09:12.642Z,0
2018-07-02T08:10:22.304Z,0
2018-07-02T08:11:32.288Z,0
2018-07-02T08:12:41.742Z,0
2018-07-02T08:13:51.162Z,0
2018-07-02T08:15:01.084Z,0
2018-07-02T08:16:11.011Z,0
2018-07-02T08:17:20.170Z,0
2018-07-02T08:18:29.338Z,0
2018-07-02T08:19:39.255Z,0
2018-07-02T08:20:48.675Z,0
2018-07-02T08:21:57.826Z,0
2018-07-02T08:23:07.263Z,0
2018-07-02T08:24:16.151Z,0
2018-07-02T08:25:25.315Z,0
2018-07-02T08:26:35.073Z,0
2018-07-02T08:27:44.770Z,0
2018-07-02T08:28:53.671Z,0
2018-07-02T08:30:03.351Z,0
2018-07-02T08:31:12.249Z,0
2018-07-02T08:32:21.650Z,0
2018-07-02T08:33:31.050Z,0
2018-07-02T08:34:39.947Z,0
2018-07-02T08:35:49.370Z,0
2018-07-02T08:36:59.103Z,0
2018-07-02T08:38:08.540Z,0
2018-07-02T08:39:17.428Z,0
2018-07-02T08:40:27.110Z,0
2018-07-02T08:41:37.031Z,0
2018-07-02T08:42:46.716Z,0
2018-07-02T08:43:56.122Z,0
2018-07-02T08:45:05.794Z,0
2018-07-02T08:46:15.506Z,0
2018-07-02T08:47:25.179Z,0
2018-07-02T08:48:34.085Z,0
2018-07-02T08:49:43.511Z,0
2018-07-02T08:50:52.414Z,0
2018-07-02T08:52:02.075Z,0
2018-07-02T08:53:11.779Z,0
2018-07-02T08:54:21.446Z,0
2018-07-02T08:55:31.379Z,0
2018-07-02T08:56:40.535Z,0
2018-07-02T08:57:49.441Z,0
2018-07-02T08:58:58.332Z,0
2018-07-02T09:00:08.045Z,0
2018-07-02T09:01:17.717Z,0
2018-07-02T09:02:27.141Z,0
2018-07-02T09:03:36.810Z,0
2018-07-02T09:04:46.475Z,0
2018-07-02T09:05:55.636Z,0
2018-07-02T09:07:04.928Z,0
2018-07-02T09:08:14.593Z,0
2018-07-02T09:09:24.007Z,0
2018-07-02T09:10:33.941Z,0
2018-07-02T09:11:43.612Z,0
2018-07-02T09:12:52.772Z,0
2018-07-02T09:14:02.452Z,0
2018-07-02T09:15:12.394Z,0
2018-07-02T09:16:22.330Z,0
2018-07-02T09:17:31.753Z,0
2018-07-02T09:18:41.465Z,0
2018-07-02T09:19:50.873Z,0
2018-07-02T09:21:00.092Z,0
2018-07-02T09:22:09.006Z,0
2018-07-02T09:23:18.154Z,0
2018-07-02T09:24:27.304Z,0
2018-07-02T09:25:36.197Z,0
2018-07-02T09:26:45.100Z,0
2018-07-02T09:27:54.772Z,0
2018-07-02T09:29:04.240Z,0
2018-07-02T09:30:13.930Z,0
2018-07-02T09:31:23.344Z,0
2018-07-02T09:32:33.111Z,0
2018-07-02T09:33:42.451Z,0
2018-07-02T09:34:51.603Z,0
2018-07-02T09:36:01.531Z,0
2018-07-02T09:37:10.936Z,0
2018-07-02T09:38:20.628Z,0
2018-07-02T09:39:30.582Z,0
2018-07-02T09:40:39.985Z,0
2018-07-02T09:41:49.384Z,0
2018-07-02T09:42:58.804Z,0
2018-07-02T09:44:08.213Z,0
2018-07-02T09:45:17.956Z,0
2018-07-02T09:46:27.375Z,0
2018-07-02T09:47:37.326Z,0
2018-07-02T09:48:46.727Z,0
2018-07-02T09:49:56.151Z,0
2018-07-02T09:51:06.016Z,0
2018-07-02T09:52:15.432Z,0
2018-07-02T09:53:25.090Z,0
2018-07-02T09:54:34.808Z,0
2018-07-02T09:55:43.792Z,0
2018-07-02T09:56:53.205Z,0
2018-07-02T09:58:02.352Z,0
2018-07-02T09:59:11.509Z,0
2018-07-02T10:00:21.447Z,0
2018-07-02T10:01:30.866Z,0
2018-07-02T10:02:39.759Z,0
2018-07-02T10:03:48.904Z,0
2018-07-02T10:04:58.130Z,0
2018-07-02T10:06:07.817Z,0
2018-07-02T10:07:16.980Z,0
2018-07-02T10:08:26.167Z,0
2018-07-02T10:09:36.111Z,0
2018-07-02T10:10:45.282Z,0
2018-07-02T10:11:55.392Z,0
2018-07-02T10:13:04.844Z,0
2018-07-02T10:14:14.266Z,0
2018-07-02T10:15:23.691Z,0
2018-07-02T10:16:33.344Z,0
2018-07-02T10:17:42.750Z,0
2018-07-02T10:18:52.154Z,0
2018-07-02T10:20:01.558Z,0
2018-07-02T10:21:10.968Z,0
2018-07-02T10:22:19.867Z,0
2018-07-02T10:23:29.179Z,0
2018-07-02T10:24:38.519Z,0
2018-07-02T10:25:47.950Z,0
2018-07-02T10:26:57.171Z,0
2018-07-02T10:28:06.591Z,0
2018-07-02T10:29:16.358Z,0
2018-07-02T10:30:25.844Z,0
2018-07-02T10:31:35.923Z,0
2018-07-02T10:32:45.336Z,0
2018-07-02T10:33:55.007Z,0
2018-07-02T10:35:04.938Z,4
2018-07-02T10:36:14.602Z,4
2018-07-02T10:37:23.756Z,4
2018-07-02T10:38:32.680Z,4
2018-07-02T10:39:42.614Z,4
2018-07-02T10:40:52.043Z,4
2018-07-02T10:42:01.190Z,4
2018-07-02T10:43:10.609Z,4
2018-07-02T10:44:20.317Z,4
2018-07-02T10:45:29.201Z,4
2018-07-02T10:46:38.356Z,4
2018-07-02T10:47:47.766Z,4
2018-07-02T10:48:57.430Z,4
2018-07-02T10:50:06.837Z,4
2018-07-02T10:51:16.502Z,4
2018-07-02T10:52:25.641Z,4
2018-07-02T10:53:35.045Z,4
2018-07-02T10:54:44.732Z,4
2018-07-02T10:55:54.235Z,4
2018-07-02T10:57:03.654Z,4
2018-07-02T10:58:13.311Z,4
2018-07-02T10:59:22.736Z,4
2018-07-02T11:00:32.413Z,4
2018-07-02T11:01:41.570Z,4
2018-07-02T11:02:51.264Z,4
2018-07-02T11:04:00.170Z,4
2018-07-02T11:05:08.830Z,4
2018-07-02T11:06:18.037Z,4
2018-07-02T11:07:27.713Z,4
2018-07-02T11:08:37.398Z,4
2018-07-02T11:09:47.082Z,4
2018-07-02T11:10:56.746Z,4
2018-07-02T11:12:06.149Z,4
2018-07-02T11:13:15.588Z,4
2018-07-02T11:14:25.531Z,4
2018-07-02T11:15:34.910Z,0
2018-07-02T11:16:43.560Z,4
2018-07-02T11:17:53.487Z,4
2018-07-02T11:19:02.899Z,4
2018-07-02T11:20:12.065Z,4
2018-07-02T11:21:21.211Z,4
2018-07-02T11:22:30.103Z,0
2018-07-02T11:23:39.717Z,0
2018-07-02T11:24:49.609Z,0
2018-07-02T11:25:58.782Z,0
2018-07-02T11:27:08.462Z,0
2018-07-02T11:28:17.364Z,0
2018-07-02T11:29:27.297Z,0
2018-07-02T11:30:36.188Z,0
2018-07-02T11:31:45.348Z,0
2018-07-02T11:32:55.029Z,0
2018-07-02T11:34:04.228Z,0
2018-07-02T11:35:13.123Z,0
2018-07-02T11:36:22.553Z,0
2018-07-02T11:37:32.062Z,0
2018-07-02T11:38:41.044Z,0
2018-07-02T11:39:50.179Z,0
2018-07-02T11:40:59.583Z,0
2018-07-02T11:42:09.253Z,0
2018-07-02T11:43:18.666Z,0
2018-07-02T11:44:28.087Z,0
2018-07-02T11:45:37.749Z,0
2018-07-02T11:46:46.643Z,0
2018-07-02T11:47:56.051Z,0
2018-07-02T11:49:05.198Z,0
2018-07-02T11:50:14.622Z,0
2018-07-02T11:51:23.516Z,4
2018-07-02T11:52:32.696Z,4
2018-07-02T11:53:42.123Z,4
2018-07-02T11:54:51.025Z,4
2018-07-02T11:56:00.431Z,4
2018-07-02T11:57:10.358Z,4
2018-07-02T11:58:19.780Z,4
2018-07-02T11:59:28.672Z,4
2018-07-02T12:00:37.568Z,4
2018-07-02T12:01:47.011Z,4
2018-07-02T12:02:56.173Z,4
2018-07-02T12:04:05.058Z,4
2018-07-02T12:05:14.745Z,4
2018-07-02T12:06:24.195Z,4
2018-07-02T12:07:33.599Z,4
2018-07-02T12:08:43.262Z,4
2018-07-02T12:09:52.467Z,4
2018-07-02T12:11:02.440Z,4
2018-07-02T12:12:11.915Z,4
2018-07-02T12:13:21.785Z,0
2018-07-02T12:14:30.998Z,4
2018-07-02T12:15:40.156Z,4
2018-07-02T12:16:49.294Z,4
2018-07-02T12:17:58.968Z,4
2018-07-02T12:19:08.899Z,4
2018-07-02T12:20:18.043Z,4
2018-07-02T12:21:27.959Z,4
2018-07-02T12:22:37.376Z,4
2018-07-02T12:23:46.545Z,4
2018-07-02T12:24:55.945Z,4
2018-07-02T12:26:04.863Z,4
2018-07-02T12:27:14.803Z,8
2018-07-02T12:28:24.473Z,8
2018-07-02T12:29:33.634Z,4
2018-07-02T12:30:43.044Z,4
2018-07-02T12:31:52.190Z,4
2018-07-02T12:33:01.089Z,4
2018-07-02T12:34:10.508Z,4
2018-07-02T12:35:19.707Z,8
2018-07-02T12:36:29.396Z,8
2018-07-02T12:37:38.809Z,8
2018-07-02T12:38:48.221Z,8
2018-07-02T12:39:57.924Z,4
2018-07-02T12:41:06.831Z,8
2018-07-02T12:42:16.224Z,8
2018-07-02T12:43:25.411Z,8
2018-07-02T12:44:34.815Z,8
2018-07-02T12:45:44.218Z,8
2018-07-02T12:46:53.578Z,8
2018-07-02T12:48:02.735Z,12
2018-07-02T12:49:11.892Z,8
2018-07-02T12:50:21.023Z,8
2018-07-02T12:51:29.927Z,8
2018-07-02T12:52:39.591Z,8
2018-07-02T12:53:48.768Z,8
2018-07-02T12:54:58.169Z,12
2018-07-02T12:56:07.320Z,12
2018-07-02T12:57:17.271Z,12
2018-07-02T12:58:26.945Z,12
2018-07-02T12:59:36.373Z,12
2018-07-02T13:00:46.045Z,8
2018-07-02T13:01:55.193Z,8
2018-07-02T13:03:04.365Z,12
2018-07-02T13:04:13.560Z,12
2018-07-02T13:05:23.001Z,12
2018-07-02T13:06:32.428Z,12
2018-07-02T13:07:42.097Z,12
2018-07-02T13:08:51.496Z,12
2018-07-02T13:10:00.898Z,12
2018-07-02T13:11:10.321Z,12
2018-07-02T13:12:19.487Z,12
2018-07-02T13:13:28.967Z,8
2018-07-02T13:14:39.011Z,12
2018-07-02T13:15:48.675Z,12
2018-07-02T13:16:58.093Z,12
2018-07-02T13:18:07.752Z,12
2018-07-02T13:19:16.934Z,12
2018-07-02T13:20:25.833Z,12
2018-07-02T13:21:35.486Z,12
2018-07-02T13:22:44.889Z,12
2018-07-02T13:23:54.298Z,12
2018-07-02T13:25:04.214Z,12
2018-07-02T13:26:13.643Z,16
2018-07-02T13:27:23.565Z,12
2018-07-02T13:28:32.727Z,16
2018-07-02T13:29:42.401Z,16
2018-07-02T13:30:51.548Z,16
2018-07-02T13:32:00.951Z,16
2018-07-02T13:33:10.355Z,16
2018-07-02T13:34:20.038Z,16
2018-07-02T13:35:29.455Z,16
2018-07-02T13:36:39.770Z,16
2018-07-02T13:37:49.769Z,16
2018-07-02T13:38:59.472Z,12
2018-07-02T13:40:09.164Z,12
2018-07-02T13:41:18.824Z,16
2018-07-02T13:42:28.237Z,12
2018-07-02T13:43:37.918Z,16
2018-07-02T13:44:47.346Z,16
2018-07-02T13:45:57.286Z,16
2018-07-02T13:47:06.466Z,16
2018-07-02T13:48:16.133Z,16
2018-07-02T13:49:25.960Z,16
2018-07-02T13:50:35.558Z,16
2018-07-02T13:51:45.224Z,16
2018-07-02T13:52:54.633Z,16
2018-07-02T13:54:04.555Z,16
2018-07-02T13:55:14.303Z,16
2018-07-02T13:56:24.097Z,16
2018-07-02T13:57:33.533Z,16
2018-07-02T13:58:43.204Z,16
2018-07-02T13:59:52.672Z,16
2018-07-02T14:01:01.858Z,16
2018-07-02T14:02:11.285Z,16
2018-07-02T14:03:20.941Z,16
2018-07-02T14:04:30.405Z,16
2018-07-02T14:05:39.847Z,16
2018-07-02T14:06:49.515Z,16
2018-07-02T14:07:59.182Z,16
2018-07-02T14:09:08.604Z,16
2018-07-02T14:10:18.041Z,16
2018-07-02T14:11:27.221Z,16
2018-07-02T14:12:36.625Z,16
2018-07-02T14:13:46.341Z,16
2018-07-02T14:14:55.503Z,16
2018-07-02T14:16:04.902Z,16
2018-07-02T14:17:14.316Z,16
2018-07-02T14:18:24.008Z,16
2018-07-02T14:19:33.413Z,12
2018-07-02T14:20:43.085Z,12
2018-07-02T14:21:52.750Z,16
2018-07-02T14:23:02.417Z,16
2018-07-02T14:24:12.342Z,12
2018-07-02T14:25:21.745Z,12
2018-07-02T14:26:31.152Z,12
2018-07-02T14:27:40.323Z,12
2018-07-02T14:28:49.742Z,12
2018-07-02T14:29:58.923Z,12
2018-07-02T14:31:08.595Z,12
2018-07-02T14:32:17.494Z,12
2018-07-02T14:33:26.646Z,12
2018-07-02T14:34:35.805Z,12
2018-07-02T14:35:45.455Z,12
2018-07-02T14:36:54.881Z,8
2018-07-02T14:38:04.559Z,8
2018-07-02T14:39:13.867Z,12
2018-07-02T14:40:23.692Z,12
2018-07-02T14:41:32.589Z,8
2018-07-02T14:42:42.258Z,8
2018-07-02T14:43:51.686Z,8
2018-07-02T14:45:02.317Z,8
2018-07-02T14:46:12.721Z,8
2018-07-02T14:47:22.193Z,8
2018-07-02T14:48:31.343Z,8
2018-07-02T14:49:40.502Z,8
2018-07-02T14:50:50.195Z,8
2018-07-02T14:51:59.089Z,8
2018-07-02T14:53:08.779Z,4
2018-07-02T14:54:18.073Z,4
2018-07-02T14:55:27.552Z,4
2018-07-02T14:56:36.961Z,8
2018-07-02T14:57:46.107Z,8
2018-07-02T14:58:55.539Z,8
2018-07-02T15:00:04.986Z,8
2018-07-02T15:01:14.501Z,4
2018-07-02T15:02:23.915Z,4
2018-07-02T15:03:33.329Z,4
2018-07-02T15:04:42.733Z,4
2018-07-02T15:05:52.663Z,4
2018-07-02T15:07:02.346Z,4
2018-07-02T15:08:11.996Z,4
2018-07-02T15:09:21.673Z,4
2018-07-02T15:10:30.826Z,4
2018-07-02T15:11:40.505Z,4
2018-07-02T15:12:49.932Z,4
2018-07-02T15:13:59.666Z,4
2018-07-02T15:15:08.563Z,4
2018-07-02T15:16:18.289Z,4
2018-07-02T15:17:27.956Z,4
2018-07-02T15:18:37.113Z,4
2018-07-02T15:19:46.275Z,4
2018-07-02T15:20:55.165Z,4
2018-07-02T15:22:04.320Z,4
2018-07-02T15:23:14.040Z,4
2018-07-02T15:24:23.460Z,4
2018-07-02T15:25:33.125Z,4
2018-07-02T15:26:42.542Z,4
2018-07-02T15:27:51.690Z,0
2018-07-02T15:29:01.366Z,4
2018-07-02T15:30:10.808Z,0
2018-07-02T15:31:20.251Z,0
2018-07-02T15:32:29.927Z,0
2018-07-02T15:33:38.825Z,0
2018-07-02T15:34:47.982Z,0
2018-07-02T15:35:57.278Z,0
2018-07-02T15:37:06.439Z,0
2018-07-02T15:38:16.133Z,0
2018-07-02T15:39:25.439Z,0
2018-07-02T15:40:34.614Z,0
2018-07-02T15:41:44.357Z,0
2018-07-02T15:42:53.762Z,0
2018-07-02T15:44:03.186Z,0
2018-07-02T15:45:13.123Z,0
2018-07-02T15:46:22.543Z,0
2018-07-02T15:47:32.017Z,0
2018-07-02T15:48:41.209Z,0
2018-07-02T15:49:50.103Z,0
2018-07-02T15:50:59.757Z,0
2018-07-02T15:52:08.396Z,0
2018-07-02T15:53:17.994Z,0
2018-07-02T15:54:27.406Z,0
2018-07-02T15:55:36.566Z,0
2018-07-02T15:56:46.304Z,0
2018-07-02T15:57:55.191Z,0
2018-07-02T15:59:04.598Z,0
2018-07-02T16:00:14.009Z,0
2018-07-02T16:01:23.154Z,0
2018-07-02T16:02:32.580Z,0
2018-07-02T16:03:41.986Z,0
2018-07-02T16:04:51.387Z,0
2018-07-02T16:06:01.047Z,0
2018-07-02T16:07:10.495Z,0
2018-07-02T16:08:19.900Z,0
2018-07-02T16:09:29.661Z,0
2018-07-02T16:10:39.330Z,0
2018-07-02T16:11:49.000Z,0
2018-07-02T16:12:58.151Z,0
2018-07-02T16:14:07.553Z,0
2018-07-02T16:15:16.445Z,0
2018-07-02T16:16:25.888Z,0
2018-07-02T16:17:35.415Z,0
2018-07-02T16:18:44.777Z,0
2018-07-02T16:19:54.197Z,0
2018-07-02T16:21:03.606Z,0
2018-07-02T16:22:13.523Z,0
2018-07-02T16:23:22.933Z,0
2018-07-02T16:24:32.437Z,0
2018-07-02T16:25:42.108Z,0
2018-07-02T16:26:51.508Z,0
2018-07-02T16:28:00.926Z,0
2018-07-02T16:29:10.605Z,0
2018-07-02T16:30:19.227Z,0
2018-07-02T16:31:28.888Z,0
2018-07-02T16:32:38.553Z,0
2018-07-02T16:33:47.713Z,0
2018-07-02T16:34:56.609Z,0
2018-07-02T16:36:05.757Z,0
2018-07-02T16:37:14.910Z,0
2018-07-02T16:38:24.576Z,0
2018-07-02T16:39:33.484Z,0
2018-07-02T16:40:43.152Z,0
2018-07-02T16:41:52.822Z,0
2018-07-02T16:43:01.725Z,0
2018-07-02T16:44:30.356Z,0
2018-07-02T16:45:40.286Z,0
2018-07-02T16:46:49.707Z,0
2018-07-02T16:47:58.658Z,0
2018-07-02T16:49:08.761Z,0
2018-07-02T16:50:18.447Z,0
2018-07-02T16:51:27.361Z,0
2018-07-02T16:52:36.390Z,0
2018-07-02T16:53:46.061Z,0
2018-07-02T16:54:55.581Z,0
2018-07-02T16:56:05.013Z,0
2018-07-02T16:57:14.678Z,0
2018-07-02T16:58:24.068Z,0
2018-07-02T16:59:32.719Z,0
2018-07-02T17:00:42.396Z,0
2018-07-02T17:01:52.059Z,0